createdAt,value
2022-12-27T00:02:49.558Z,1.33
2022-12-27T00:09:26.116Z,1.30
2022-12-27T00:12:14.912Z,1.50
2022-12-27T00:15:08.791Z,1.10
2022-12-27T00:17:53.497Z,1.33
2022-12-27T00:20:49.455Z,1.90
2022-12-27T00:23:28.494Z,1.10
2022-12-27T00:27:02.908Z,1.30
2022-12-27T00:29:49.713Z,1.33
2022-12-27T00:32:37.448Z,1.63
2022-12-27T00:35:55.407Z,1.10
2022-12-27T00:39:12.953Z,1.53
2022-12-27T00:42:35.300Z,0.90
2022-12-27T00:46:16.042Z,2.60
2022-12-27T00:52:23.509Z,1.70
2022-12-27T00:55:16.100Z,1.70
2022-12-27T00:57:55.842Z,1.63
2022-12-27T01:01:03.825Z,1.53
2022-12-27T01:04:29.384Z,1.93
2022-12-27T01:07:45.682Z,1.67
2022-12-27T01:10:35.769Z,0.90
2022-12-27T01:13:36.318Z,1.37
2022-12-27T01:16:49.015Z,1.53
2022-12-27T01:21:36.637Z,1.77
2022-12-27T01:23:40.577Z,1.23
2022-12-27T01:26:21.599Z,1.83
2022-12-27T01:29:19.551Z,2.57
2022-12-27T01:32:49.023Z,1.40
2022-12-27T01:35:39.755Z,2.10
2022-12-27T01:42:11.407Z,1.40
2022-12-27T01:45:15.363Z,2.10
2022-12-27T01:56:20.699Z,1.70
2022-12-27T01:59:15.875Z,1.20
2022-12-27T02:01:56.707Z,0.90
2022-12-27T02:05:07.702Z,2.00
2022-12-27T02:08:21.792Z,1.50
2022-12-27T02:11:07.135Z,1.17
2022-12-27T02:13:53.756Z,1.63
2022-12-27T02:16:44.998Z,1.33
2022-12-27T02:30:44.400Z,1.67
2022-12-27T02:33:43.224Z,1.37
2022-12-27T02:37:19.708Z,2.17
2022-12-27T02:40:25.372Z,1.93
2022-12-27T02:52:21.862Z,2.03
2022-12-27T02:56:12.479Z,1.50
2022-12-27T03:00:11.317Z,1.73
2022-12-27T03:03:43.994Z,1.53
2022-12-27T03:07:12.445Z,1.77
2022-12-27T03:10:27.557Z,1.33
2022-12-27T03:14:11.944Z,2.13
2022-12-27T03:17:14.803Z,1.47
2022-12-27T03:20:27.259Z,1.87
2022-12-27T03:23:36.782Z,1.60
2022-12-27T03:26:39.411Z,1.50
2022-12-27T03:30:08.527Z,2.80
2022-12-27T03:33:29.472Z,2.17
2022-12-27T03:37:02.661Z,1.73
2022-12-27T03:40:33.618Z,2.57
2022-12-27T03:44:15.033Z,1.50
2022-12-27T03:47:30.667Z,1.67
2022-12-27T03:50:52.460Z,2.00
2022-12-27T03:54:13.301Z,1.10
2022-12-27T03:57:07.257Z,2.10
2022-12-27T03:59:50.733Z,1.60
2022-12-27T04:02:39.186Z,1.87
2022-12-27T04:05:27.621Z,1.57
2022-12-27T04:08:31.425Z,1.50
2022-12-27T04:14:49.191Z,2.00
2022-12-27T04:17:46.065Z,1.27
2022-12-27T04:20:52.282Z,2.80
2022-12-27T04:24:18.199Z,1.97
2022-12-27T04:27:36.837Z,1.77
2022-12-27T04:30:33.038Z,2.33
2022-12-27T04:33:36.500Z,2.30
2022-12-27T04:36:51.991Z,1.90
2022-12-27T04:39:39.646Z,1.67
2022-12-27T04:43:28.838Z,2.00
2022-12-27T04:46:41.414Z,2.47
2022-12-27T04:49:50.465Z,2.40
2022-12-27T04:52:50.615Z,1.73
2022-12-27T04:55:35.943Z,2.30
2022-12-27T04:58:21.793Z,2.13
2022-12-27T05:01:58.161Z,1.67
2022-12-27T05:05:18.069Z,2.10
2022-12-27T05:08:26.308Z,1.93
2022-12-27T05:11:32.819Z,2.37
2022-12-27T05:14:37.458Z,2.03
2022-12-27T05:17:32.359Z,2.93
2022-12-27T05:21:20.118Z,1.50
2022-12-27T05:24:33.007Z,1.70
2022-12-27T05:27:35.723Z,1.73
2022-12-27T05:30:31.835Z,2.27
2022-12-27T05:33:22.044Z,2.50
2022-12-27T05:36:27.839Z,1.63
2022-12-27T05:39:24.881Z,2.03
2022-12-27T05:42:16.762Z,1.60
2022-12-27T05:45:07.559Z,1.40
2022-12-27T05:47:48.925Z,1.67
2022-12-27T05:50:47.341Z,1.60
2022-12-27T05:53:35.599Z,1.10
2022-12-27T05:56:09.994Z,1.10
2022-12-27T05:59:10.489Z,2.37
2022-12-27T06:01:53.812Z,1.53
2022-12-27T06:05:19.083Z,2.60
2022-12-27T06:08:09.260Z,1.60
2022-12-27T06:10:52.771Z,1.60
2022-12-27T06:13:39.522Z,1.20
2022-12-27T06:16:32.655Z,1.37
2022-12-27T06:19:45.820Z,1.37
2022-12-27T06:22:52.052Z,1.67
2022-12-27T06:25:51.413Z,1.20
2022-12-27T06:28:53.973Z,0.87
2022-12-27T06:32:00.925Z,2.37
2022-12-27T06:34:43.722Z,5.27
2022-12-27T06:38:58.533Z,2.10
2022-12-27T06:40:51.171Z,1.73
2022-12-27T06:43:34.716Z,1.67
2022-12-27T06:46:29.377Z,1.00
2022-12-27T06:49:09.876Z,1.70
2022-12-27T06:51:54.147Z,1.70
2022-12-27T06:54:43.839Z,1.93
2022-12-27T07:00:22.342Z,1.97
2022-12-27T07:03:01.109Z,1.60
2022-12-27T07:06:00.753Z,1.53
2022-12-27T07:08:50.642Z,1.53
2022-12-27T07:12:04.036Z,1.33
2022-12-27T07:15:13.720Z,1.70
2022-12-27T07:18:06.674Z,1.10
2022-12-27T07:21:02.809Z,1.30
2022-12-27T07:23:52.082Z,1.13
2022-12-27T07:27:26.235Z,1.77
2022-12-27T07:30:19.768Z,1.30
2022-12-27T07:33:00.336Z,1.87
2022-12-27T07:35:46.729Z,1.80
2022-12-27T07:38:39.951Z,1.53
2022-12-27T07:41:48.603Z,2.63
2022-12-27T07:44:30.422Z,10.50
2022-12-27T07:47:13.144Z,1.57
2022-12-27T07:49:57.278Z,1.30
2022-12-27T07:52:38.714Z,1.90
2022-12-27T07:55:31.971Z,2.03
2022-12-27T07:58:19.440Z,1.80
2022-12-27T08:01:09.074Z,2.20
2022-12-27T08:03:50.134Z,1.23
2022-12-27T08:06:45.515Z,1.50
2022-12-27T08:09:50.156Z,1.47
2022-12-27T08:12:50.060Z,1.63
2022-12-27T08:15:59.913Z,2.47
2022-12-27T08:19:11.311Z,1.37
2022-12-27T08:25:05.306Z,1.77
2022-12-27T08:27:52.309Z,2.20
2022-12-27T08:30:39.000Z,1.50
2022-12-27T08:33:09.782Z,1.43
2022-12-27T08:39:16.781Z,1.13
2022-12-27T08:42:22.325Z,3.10
2022-12-27T08:45:07.714Z,1.30
2022-12-27T08:47:54.128Z,2.50
2022-12-27T08:51:35.771Z,1.63
2022-12-27T08:54:11.458Z,4.07
2022-12-27T08:57:05.421Z,2.83
2022-12-27T08:59:57.177Z,1.97
2022-12-27T09:02:57.620Z,1.50
2022-12-27T09:05:51.980Z,1.33
2022-12-27T09:08:51.217Z,2.40
2022-12-27T09:11:31.030Z,2.27
2022-12-27T09:14:14.964Z,1.80
2022-12-27T09:17:10.079Z,1.83
2022-12-27T09:20:03.230Z,1.57
2022-12-27T09:22:50.150Z,1.80
2022-12-27T09:25:53.837Z,2.20
2022-12-27T09:31:50.689Z,1.63
2022-12-27T09:35:22.283Z,1.27
2022-12-27T09:38:19.102Z,1.50
2022-12-27T09:41:04.008Z,2.77
2022-12-27T09:44:26.753Z,2.97
2022-12-27T09:48:18.248Z,2.00
2022-12-27T09:51:39.489Z,2.03
2022-12-27T09:54:43.924Z,1.50
2022-12-27T09:58:14.392Z,1.93
2022-12-27T10:00:58.922Z,1.40
2022-12-27T10:03:43.492Z,1.77
2022-12-27T10:10:00.363Z,1.30
2022-12-27T10:13:22.847Z,1.83
2022-12-27T10:16:27.426Z,1.90
2022-12-27T10:19:45.780Z,1.97
2022-12-27T10:23:09.207Z,1.70
2022-12-27T10:25:41.189Z,1.40
2022-12-27T10:29:02.565Z,1.70
2022-12-27T10:31:42.838Z,2.70
2022-12-27T10:34:28.414Z,2.67
2022-12-27T10:38:13.742Z,4.70
2022-12-27T10:40:58.075Z,2.10
2022-12-27T10:44:15.154Z,2.00
2022-12-27T10:57:51.595Z,1.23
2022-12-27T11:00:55.737Z,2.03
2022-12-27T11:04:30.908Z,2.40
2022-12-27T11:07:23.143Z,1.80
2022-12-27T11:10:57.007Z,1.90
2022-12-27T11:14:47.150Z,2.10
2022-12-27T11:18:11.198Z,2.03
2022-12-27T11:21:27.277Z,2.30
2022-12-27T11:24:20.453Z,3.17
2022-12-27T11:27:07.169Z,1.87
2022-12-27T11:30:27.019Z,3.10
2022-12-27T11:33:24.975Z,10.33
2022-12-27T11:36:10.230Z,8.70
2022-12-27T11:39:04.892Z,2.60
2022-12-27T11:42:43.909Z,2.10
2022-12-27T11:46:12.480Z,2.30
2022-12-27T11:53:07.951Z,2.17
2022-12-27T12:01:31.457Z,2.70
2022-12-27T12:05:02.258Z,2.07
2022-12-27T12:08:05.701Z,2.17
2022-12-27T12:11:55.430Z,1.63
2022-12-27T12:23:04.985Z,2.23
2022-12-27T12:27:13.035Z,8.30
2022-12-27T12:34:29.291Z,2.20
2022-12-27T12:42:10.432Z,2.27
2022-12-27T12:49:55.260Z,2.33
2022-12-27T12:53:45.448Z,2.27
2022-12-27T12:57:28.823Z,2.00
2022-12-27T13:00:43.128Z,2.50
2022-12-27T13:03:58.474Z,2.50
2022-12-27T13:16:05.237Z,2.43
2022-12-27T13:19:19.178Z,2.00
2022-12-27T13:23:03.822Z,1.83
2022-12-27T13:30:34.973Z,1.80
2022-12-27T13:33:58.053Z,2.70
2022-12-27T13:37:02.303Z,3.23
2022-12-27T13:40:27.408Z,2.50
2022-12-27T13:43:45.245Z,2.17
2022-12-27T13:46:54.282Z,2.00
2022-12-27T13:49:52.870Z,2.20
2022-12-27T13:53:29.558Z,2.07
2022-12-27T13:57:15.859Z,2.80
2022-12-27T14:00:46.437Z,2.33
2022-12-27T14:03:54.676Z,2.97
2022-12-27T14:06:49.169Z,1.93
2022-12-27T14:10:30.589Z,2.43
2022-12-27T14:13:46.219Z,2.17
2022-12-27T14:17:50.959Z,2.77
2022-12-27T14:21:19.154Z,2.93
2022-12-27T14:24:08.154Z,2.10
2022-12-27T14:27:28.112Z,1.77
2022-12-27T14:31:13.524Z,2.60
2022-12-27T14:38:26.703Z,2.50
2022-12-27T14:41:45.021Z,1.90
2022-12-27T14:44:58.458Z,2.50
2022-12-27T14:47:59.196Z,2.10
2022-12-27T14:50:42.897Z,2.93
2022-12-27T14:53:45.720Z,2.20
2022-12-27T14:57:12.802Z,2.43
2022-12-27T15:00:50.375Z,1.73
2022-12-27T15:04:09.170Z,2.47
2022-12-27T15:07:17.815Z,1.90
2022-12-27T15:10:17.197Z,1.60
2022-12-27T15:13:38.786Z,3.80
2022-12-27T15:16:56.433Z,10.60
2022-12-27T15:20:18.785Z,2.57
2022-12-27T15:23:56.267Z,1.97
2022-12-27T15:26:48.363Z,2.50
2022-12-27T15:34:08.470Z,2.20
2022-12-27T15:36:57.216Z,2.20
2022-12-27T15:39:44.275Z,2.37
2022-12-27T15:42:49.221Z,2.47
2022-12-27T15:46:10.078Z,2.17
2022-12-27T15:49:44.048Z,3.70
2022-12-27T15:52:39.057Z,3.30
2022-12-27T15:55:52.895Z,3.00
2022-12-27T15:58:38.668Z,3.30
2022-12-27T16:01:32.141Z,3.10
2022-12-27T16:04:58.181Z,3.27
2022-12-27T16:08:35.715Z,3.30
2022-12-27T16:12:02.243Z,3.90
2022-12-27T16:14:44.873Z,4.40
2022-12-27T16:17:39.507Z,4.10
2022-12-27T16:20:37.970Z,3.20
2022-12-27T16:23:14.754Z,4.40
2022-12-27T16:26:05.583Z,4.07
2022-12-27T16:28:45.123Z,4.30
2022-12-27T16:31:27.673Z,2.80
2022-12-27T16:34:35.702Z,3.27
2022-12-27T16:37:34.049Z,3.57
2022-12-27T16:40:14.283Z,3.43
2022-12-27T16:43:10.927Z,4.40
2022-12-27T16:46:17.607Z,6.53
2022-12-27T16:49:55.340Z,3.40
2022-12-27T16:52:49.124Z,3.80
2022-12-27T16:56:14.495Z,5.67
2022-12-27T16:58:52.713Z,3.50
2022-12-27T17:01:40.588Z,3.10
2022-12-27T17:04:16.799Z,2.37
2022-12-27T17:06:56.326Z,3.20
2022-12-27T17:09:46.934Z,3.20
2022-12-27T17:12:29.225Z,3.10
2022-12-27T17:15:06.066Z,2.87
2022-12-27T17:17:37.265Z,2.40
2022-12-27T17:20:28.557Z,3.03
2022-12-27T17:23:06.367Z,2.87
2022-12-27T17:26:09.442Z,2.90
2022-12-27T17:29:16.829Z,3.23
2022-12-27T17:32:31.715Z,2.80
2022-12-27T17:40:04.108Z,3.20
2022-12-27T17:43:35.095Z,4.30
2022-12-27T17:46:23.045Z,3.87
2022-12-27T17:52:25.418Z,3.57
2022-12-27T17:55:26.353Z,4.50
2022-12-27T17:58:28.092Z,5.00
2022-12-27T18:01:19.355Z,4.30
2022-12-27T18:03:55.178Z,4.10
2022-12-27T18:06:26.188Z,5.00
2022-12-27T18:09:10.714Z,4.73
2022-12-27T18:11:42.428Z,4.40
2022-12-27T18:14:13.640Z,6.40
2022-12-27T18:16:41.082Z,4.67
2022-12-27T18:19:08.056Z,4.90
2022-12-27T18:21:34.940Z,5.80
2022-12-27T18:24:02.139Z,5.60
2022-12-27T18:26:39.126Z,6.40
2022-12-27T18:29:10.681Z,5.80
2022-12-27T18:31:43.563Z,4.60
2022-12-27T18:35:00.818Z,5.57
2022-12-27T18:37:28.099Z,4.80
2022-12-27T18:40:01.607Z,5.20
2022-12-27T18:42:35.546Z,5.10
2022-12-27T18:45:19.934Z,7.07
2022-12-27T18:47:51.503Z,6.60
2022-12-27T18:50:31.860Z,6.87
2022-12-27T18:53:24.314Z,7.27
2022-12-27T18:56:16.300Z,5.83
2022-12-27T18:59:19.366Z,9.60
2022-12-27T19:01:48.018Z,6.17
2022-12-27T19:04:14.923Z,8.57
2022-12-27T19:06:48.373Z,7.87
2022-12-27T19:09:18.679Z,8.87
2022-12-27T19:11:58.183Z,8.67
2022-12-27T19:14:26.917Z,9.30
2022-12-27T19:16:57.491Z,7.50
2022-12-27T19:19:29.298Z,7.83
2022-12-27T19:21:57.672Z,7.17
2022-12-27T19:24:27.218Z,6.43
2022-12-27T19:26:57.960Z,6.90
2022-12-27T19:29:30.706Z,7.30
2022-12-27T19:32:05.289Z,6.40
2022-12-27T19:34:45.394Z,6.83
2022-12-27T19:37:12.785Z,6.53
2022-12-27T19:39:41.544Z,7.40
2022-12-27T19:42:15.995Z,7.40
2022-12-27T19:44:42.929Z,6.80
2022-12-27T19:47:13.588Z,7.10
2022-12-27T19:49:42.631Z,6.50
2022-12-27T19:52:23.971Z,7.43
2022-12-27T19:54:58.417Z,6.77
2022-12-27T19:57:25.361Z,6.37
2022-12-27T19:59:52.224Z,7.63
2022-12-27T20:02:20.757Z,6.13
2022-12-27T20:04:47.815Z,6.63
2022-12-27T20:07:22.205Z,5.27
2022-12-27T20:09:49.499Z,6.20
2022-12-27T20:12:16.631Z,6.83
2022-12-27T20:14:43.554Z,5.77
2022-12-27T20:17:10.422Z,5.80
2022-12-27T20:19:37.331Z,5.70
2022-12-27T20:22:05.865Z,4.83
2022-12-27T20:24:34.912Z,5.90
2022-12-27T20:27:02.167Z,5.80
2022-12-27T20:29:30.288Z,5.30
2022-12-27T20:31:58.381Z,5.63
2022-12-27T20:34:26.786Z,5.70
2022-12-27T20:36:55.346Z,5.00
2022-12-27T20:39:22.322Z,4.93
2022-12-27T20:41:49.306Z,5.97
2022-12-27T20:44:16.266Z,5.03
2022-12-27T20:46:43.220Z,5.10
2022-12-27T20:49:10.355Z,5.60
2022-12-27T20:51:37.352Z,4.20
2022-12-27T20:54:04.974Z,5.27
2022-12-27T20:56:32.044Z,4.80
2022-12-27T20:58:59.109Z,5.03
2022-12-27T21:01:26.814Z,4.43
2022-12-27T21:03:56.069Z,4.97
2022-12-27T21:06:26.972Z,4.37
2022-12-27T21:08:57.350Z,4.30
2022-12-27T21:11:31.657Z,4.60
2022-12-27T21:14:03.846Z,4.10
2022-12-27T21:16:33.793Z,3.60
2022-12-27T21:19:04.848Z,4.07
2022-12-27T21:21:34.966Z,4.03
2022-12-27T21:24:02.043Z,6.37
2022-12-27T21:26:36.226Z,3.73
2022-12-27T21:29:05.568Z,3.80
2022-12-27T21:31:33.152Z,4.73
2022-12-27T21:34:00.477Z,4.30
2022-12-27T21:36:30.210Z,3.50
2022-12-27T21:38:57.288Z,4.07
2022-12-27T21:41:30.518Z,3.90
2022-12-27T21:43:57.470Z,4.17
2022-12-27T21:46:27.750Z,4.33
2022-12-27T21:49:07.536Z,3.80
2022-12-27T21:51:36.367Z,3.20
2022-12-27T21:54:04.189Z,3.70
2022-12-27T21:56:31.423Z,3.60
2022-12-27T21:59:00.372Z,3.57
2022-12-27T22:01:30.563Z,3.43
2022-12-27T22:04:17.381Z,4.70
2022-12-27T22:06:47.258Z,3.23
2022-12-27T22:09:16.565Z,3.53
2022-12-27T22:11:43.532Z,3.50
2022-12-27T22:14:10.542Z,2.37
2022-12-27T22:16:39.542Z,3.20
2022-12-27T22:19:09.202Z,3.13
2022-12-27T22:21:38.084Z,3.10
2022-12-27T22:24:06.445Z,2.87
2022-12-27T22:26:41.786Z,3.17
2022-12-27T22:29:08.687Z,3.07
2022-12-27T22:31:38.009Z,3.50
2022-12-27T22:34:06.365Z,2.73
2022-12-27T22:36:34.704Z,2.60
2022-12-27T22:39:02.553Z,3.77
2022-12-27T22:41:33.389Z,2.80
2022-12-27T22:44:23.051Z,3.47
2022-12-27T22:49:36.928Z,3.60
2022-12-27T22:52:04.106Z,2.87
2022-12-27T22:55:05.590Z,3.80
2022-12-27T22:57:17.990Z,4.90
2022-12-27T22:59:44.996Z,2.87
2022-12-27T23:02:12.871Z,3.20
2022-12-27T23:04:42.747Z,3.57
2022-12-27T23:07:09.742Z,2.97
2022-12-27T23:09:42.829Z,2.67
2022-12-27T23:12:10.225Z,2.73
2022-12-27T23:14:37.215Z,2.50
2022-12-27T23:17:04.135Z,2.77
2022-12-27T23:19:31.088Z,2.70
2022-12-27T23:21:58.035Z,2.10
2022-12-27T23:24:24.937Z,2.70
2022-12-27T23:26:51.867Z,2.80
2022-12-27T23:29:18.738Z,2.60
2022-12-27T23:31:55.323Z,2.50
2022-12-27T23:34:28.381Z,2.67
2022-12-27T23:36:57.334Z,2.50
2022-12-27T23:39:24.564Z,3.07
2022-12-27T23:41:51.426Z,2.90
2022-12-27T23:44:33.039Z,2.93
2022-12-27T23:47:03.812Z,2.00
2022-12-27T23:49:30.998Z,2.67
2022-12-27T23:51:57.924Z,2.30
2022-12-27T23:54:24.816Z,2.10
2022-12-27T23:56:51.722Z,2.70
2022-12-27T23:59:18.690Z,2.53
